createdAt,value
2023-01-12T00:01:57.599Z,6.68
2023-01-12T00:04:25.253Z,6.71
2023-01-12T00:06:52.631Z,6.69
2023-01-12T00:09:19.980Z,6.68
2023-01-12T00:11:47.307Z,6.73
2023-01-12T00:14:15.044Z,6.80
2023-01-12T00:16:42.718Z,6.70
2023-01-12T00:19:11.587Z,6.77
2023-01-12T00:22:06.195Z,6.80
2023-01-12T00:24:37.328Z,6.80
2023-01-12T00:27:09.881Z,6.71
2023-01-12T00:29:37.706Z,6.72
2023-01-12T00:32:06.072Z,6.75
2023-01-12T00:34:33.964Z,6.81
2023-01-12T00:37:02.230Z,6.80
2023-01-12T00:39:29.555Z,6.95
2023-01-12T00:42:15.543Z,6.97
2023-01-12T00:45:01.472Z,6.93
2023-01-12T00:47:28.815Z,6.88
2023-01-12T00:49:56.204Z,6.86
2023-01-12T00:52:31.765Z,6.75
2023-01-12T00:55:00.022Z,6.73
2023-01-12T00:57:28.352Z,6.78
2023-01-12T00:59:58.121Z,6.74
2023-01-12T01:02:27.553Z,6.75
2023-01-12T01:04:55.043Z,6.74
2023-01-12T01:07:22.511Z,6.76
2023-01-12T01:09:50.291Z,6.72
2023-01-12T01:12:17.705Z,6.74
2023-01-12T01:14:46.332Z,6.71
2023-01-12T01:17:13.673Z,6.73
2023-01-12T01:19:40.979Z,6.87
2023-01-12T01:22:08.347Z,6.70
2023-01-12T01:24:35.632Z,6.62
2023-01-12T01:27:03.171Z,6.57
2023-01-12T01:29:30.443Z,6.60
2023-01-12T01:31:57.905Z,6.48
2023-01-12T01:34:25.247Z,6.41
2023-01-12T01:36:52.703Z,6.41
2023-01-12T01:39:20.021Z,6.39
2023-01-12T01:41:48.209Z,6.32
2023-01-12T01:44:30.929Z,6.28
2023-01-12T01:47:11.308Z,6.27
2023-01-12T01:49:54.907Z,6.20
2023-01-12T01:52:36.723Z,6.21
2023-01-12T01:55:11.254Z,6.14
2023-01-12T01:57:46.107Z,6.16
2023-01-12T02:00:13.918Z,6.08
2023-01-12T02:02:43.891Z,6.15
2023-01-12T02:05:11.829Z,6.20
2023-01-12T02:07:39.299Z,6.18
2023-01-12T02:10:06.930Z,6.08
2023-01-12T02:12:52.838Z,5.98
2023-01-12T02:15:43.352Z,5.90
2023-01-12T02:18:13.763Z,5.84
2023-01-12T02:20:48.584Z,5.91
2023-01-12T02:23:30.740Z,5.85
2023-01-12T02:26:06.902Z,5.82
2023-01-12T02:29:11.851Z,5.80
2023-01-12T02:31:59.051Z,5.68
2023-01-12T02:34:32.567Z,5.73
2023-01-12T02:37:07.746Z,5.67
2023-01-12T02:39:50.474Z,5.64
2023-01-12T02:42:41.283Z,5.56
2023-01-12T02:45:21.121Z,5.47
2023-01-12T02:48:15.925Z,5.32
2023-01-12T02:51:11.248Z,5.34
2023-01-12T02:53:43.548Z,5.39
2023-01-12T02:56:13.723Z,5.29
2023-01-12T02:58:47.136Z,5.27
2023-01-12T03:01:16.928Z,5.37
2023-01-12T03:03:45.182Z,5.34
2023-01-12T03:06:17.498Z,5.35
2023-01-12T03:08:47.993Z,5.33
2023-01-12T03:11:20.680Z,5.37
2023-01-12T03:13:52.248Z,5.43
2023-01-12T03:16:27.172Z,5.41
2023-01-12T03:19:04.371Z,5.31
2023-01-12T03:21:46.735Z,5.33
2023-01-12T03:24:23.358Z,5.51
2023-01-12T03:26:55.310Z,5.43
2023-01-12T03:29:27.956Z,5.44
2023-01-12T03:31:56.149Z,5.35
2023-01-12T03:34:23.970Z,5.38
2023-01-12T03:37:21.955Z,5.44
2023-01-12T03:40:17.376Z,5.33
2023-01-12T03:42:55.781Z,5.29
2023-01-12T03:45:41.215Z,5.23
2023-01-12T03:48:27.000Z,5.19
2023-01-12T03:51:15.244Z,5.16
2023-01-12T03:53:45.266Z,5.17
2023-01-12T03:56:14.243Z,5.19
2023-01-12T03:58:42.122Z,5.30
2023-01-12T04:01:09.675Z,5.24
2023-01-12T04:03:37.259Z,5.19
2023-01-12T04:06:05.222Z,5.00
2023-01-12T04:08:32.656Z,4.97
2023-01-12T04:11:00.362Z,4.84
2023-01-12T04:13:27.836Z,4.81
2023-01-12T04:15:55.229Z,4.80
2023-01-12T04:18:22.680Z,4.85
2023-01-12T04:20:50.056Z,4.79
2023-01-12T04:23:17.496Z,4.74
2023-01-12T04:25:44.882Z,4.60
2023-01-12T04:28:12.362Z,4.61
2023-01-12T04:30:39.789Z,4.63
2023-01-12T04:33:08.282Z,4.78
2023-01-12T04:35:35.751Z,4.79
2023-01-12T04:38:07.812Z,4.98
2023-01-12T04:40:35.616Z,5.05
2023-01-12T04:43:07.325Z,5.13
2023-01-12T04:45:36.324Z,5.14
2023-01-12T04:48:10.319Z,4.95
2023-01-12T04:50:38.922Z,5.16
2023-01-12T04:53:09.239Z,5.27
2023-01-12T04:55:38.456Z,5.27
2023-01-12T04:58:06.496Z,5.25
2023-01-12T05:00:34.692Z,5.33
2023-01-12T05:03:03.448Z,5.15
2023-01-12T05:05:32.589Z,5.09
2023-01-12T05:08:19.997Z,5.10
2023-01-12T05:10:51.428Z,5.14
2023-01-12T05:13:19.445Z,5.14
2023-01-12T05:15:46.981Z,5.11
2023-01-12T05:18:14.486Z,4.99
2023-01-12T05:20:42.267Z,4.94
2023-01-12T05:23:09.704Z,4.92
2023-01-12T05:25:37.313Z,4.98
2023-01-12T05:28:05.090Z,5.06
2023-01-12T05:30:32.546Z,5.04
2023-01-12T05:33:00.065Z,4.92
2023-01-12T05:35:27.450Z,4.76
2023-01-12T05:37:56.719Z,4.62
2023-01-12T05:40:24.874Z,4.56
2023-01-12T05:43:10.762Z,4.61
2023-01-12T05:45:38.168Z,4.58
2023-01-12T05:48:06.129Z,4.66
2023-01-12T05:50:33.585Z,4.63
2023-01-12T05:53:10.585Z,4.66
2023-01-12T05:55:38.687Z,4.60
2023-01-12T05:58:06.281Z,4.55
2023-01-12T06:00:33.772Z,4.30
2023-01-12T06:03:02.973Z,4.31
2023-01-12T06:05:30.428Z,4.40
2023-01-12T06:07:59.101Z,4.19
2023-01-12T06:10:26.743Z,4.31
2023-01-12T06:13:12.598Z,4.26
2023-01-12T06:15:40.162Z,4.25
2023-01-12T06:18:07.586Z,4.18
2023-01-12T06:20:35.046Z,4.29
2023-01-12T06:23:04.977Z,4.16
2023-01-12T06:25:32.711Z,4.25
2023-01-12T06:28:00.314Z,4.39
2023-01-12T06:30:27.806Z,4.45
2023-01-12T06:32:55.324Z,4.65
2023-01-12T06:35:22.797Z,4.79
2023-01-12T06:37:55.741Z,4.32
2023-01-12T06:40:23.197Z,4.34
2023-01-12T06:42:50.873Z,4.38
2023-01-12T06:45:18.427Z,4.39
2023-01-12T06:47:52.389Z,4.77
2023-01-12T06:50:19.959Z,4.79
2023-01-12T06:52:47.581Z,4.54
2023-01-12T06:55:15.281Z,4.56
2023-01-12T06:57:42.796Z,4.55
2023-01-12T07:00:13.203Z,4.74
2023-01-12T07:02:40.758Z,4.70
2023-01-12T07:05:08.661Z,4.66
2023-01-12T07:07:39.273Z,4.77
2023-01-12T07:10:08.134Z,4.99
2023-01-12T07:12:35.933Z,4.83
2023-01-12T07:15:04.065Z,4.81
2023-01-12T07:17:31.996Z,5.17
2023-01-12T07:19:59.486Z,5.76
2023-01-12T07:22:30.431Z,6.44
2023-01-12T07:24:58.045Z,6.54
2023-01-12T07:27:25.538Z,6.63
2023-01-12T07:29:52.985Z,6.67
2023-01-12T07:32:20.377Z,6.75
2023-01-12T07:34:48.066Z,6.46
2023-01-12T07:37:15.485Z,6.13
2023-01-12T07:39:43.023Z,5.99
2023-01-12T07:42:25.604Z,5.79
2023-01-12T07:44:53.545Z,5.66
2023-01-12T07:47:21.050Z,5.80
2023-01-12T07:49:48.596Z,5.95
2023-01-12T07:52:16.151Z,6.08
2023-01-12T07:54:43.736Z,6.14
2023-01-12T07:57:11.693Z,6.43
2023-01-12T07:59:39.601Z,6.60
2023-01-12T08:02:07.269Z,6.52
2023-01-12T08:04:34.942Z,6.38
2023-01-12T08:07:02.442Z,6.24
2023-01-12T08:09:30.027Z,6.28
2023-01-12T08:11:57.441Z,6.20
2023-01-12T08:14:33.282Z,6.12
2023-01-12T08:17:02.296Z,6.11
2023-01-12T08:19:38.715Z,6.09
2023-01-12T08:22:12.939Z,6.27
2023-01-12T08:24:47.525Z,6.39
2023-01-12T08:27:18.724Z,6.25
2023-01-12T08:29:51.522Z,6.11
2023-01-12T08:32:19.464Z,6.23
2023-01-12T08:34:50.444Z,6.34
2023-01-12T08:37:21.658Z,6.34
2023-01-12T08:39:50.576Z,6.38
2023-01-12T08:42:19.149Z,6.47
2023-01-12T08:44:46.792Z,6.57
2023-01-12T08:47:27.081Z,6.66
2023-01-12T08:49:55.420Z,6.56
2023-01-12T08:52:41.503Z,6.49
2023-01-12T08:55:11.254Z,6.49
2023-01-12T08:57:38.807Z,6.39
2023-01-12T09:00:07.085Z,6.43
2023-01-12T09:02:34.694Z,6.54
2023-01-12T09:05:02.310Z,6.62
2023-01-12T09:07:32.020Z,6.60
2023-01-12T09:09:59.506Z,6.43
2023-01-12T09:12:28.385Z,6.39
2023-01-12T09:14:55.975Z,6.25
2023-01-12T09:17:23.512Z,6.27
2023-01-12T09:19:51.631Z,6.41
2023-01-12T09:22:19.114Z,6.38
2023-01-12T09:24:46.688Z,6.44
2023-01-12T09:27:14.137Z,6.45
2023-01-12T09:29:41.686Z,6.55
2023-01-12T09:32:09.841Z,6.60
2023-01-12T09:34:37.466Z,6.67
2023-01-12T09:37:04.899Z,6.70
2023-01-12T09:39:32.389Z,6.91
2023-01-12T09:42:18.344Z,6.94
2023-01-12T09:45:09.893Z,6.93
2023-01-12T09:48:01.291Z,6.96
2023-01-12T09:50:42.376Z,7.22
2023-01-12T09:53:19.441Z,7.40
2023-01-12T09:56:02.845Z,7.85
2023-01-12T09:59:07.933Z,8.03
2023-01-12T10:01:36.910Z,8.30
2023-01-12T10:04:23.122Z,8.37
2023-01-12T10:06:51.149Z,8.23
2023-01-12T10:09:20.287Z,8.48
2023-01-12T10:12:15.651Z,8.40
2023-01-12T10:15:11.054Z,8.55
2023-01-12T10:17:52.011Z,8.29
2023-01-12T10:20:40.504Z,8.44
2023-01-12T10:23:11.235Z,8.59
2023-01-12T10:25:48.741Z,8.81
2023-01-12T10:28:29.971Z,8.91
2023-01-12T10:30:58.404Z,8.79
2023-01-12T10:33:28.794Z,8.72
2023-01-12T10:35:56.203Z,8.63
2023-01-12T10:38:34.798Z,8.61
2023-01-12T10:41:11.055Z,8.48
2023-01-12T10:43:40.545Z,8.42
2023-01-12T10:46:22.519Z,8.44
2023-01-12T10:48:54.267Z,8.41
2023-01-12T10:51:26.295Z,8.44
2023-01-12T10:53:59.024Z,8.42
2023-01-12T10:56:31.573Z,8.37
2023-01-12T10:59:02.066Z,8.53
2023-01-12T11:02:08.896Z,8.76
2023-01-12T11:04:41.466Z,8.71
2023-01-12T11:07:08.953Z,8.56
2023-01-12T11:09:37.214Z,8.57
2023-01-12T11:12:32.704Z,8.91
2023-01-12T11:15:16.940Z,8.84
2023-01-12T11:18:03.999Z,8.86
2023-01-12T11:20:44.412Z,9.08
2023-01-12T11:23:22.578Z,9.05
2023-01-12T11:25:52.576Z,8.97
2023-01-12T11:28:52.268Z,8.98
2023-01-12T11:31:28.515Z,8.84
2023-01-12T11:34:03.657Z,8.85
2023-01-12T11:36:59.453Z,8.89
2023-01-12T11:39:30.004Z,8.83
2023-01-12T11:42:20.912Z,8.81
2023-01-12T11:45:05.225Z,8.54
2023-01-12T11:47:36.830Z,8.54
2023-01-12T11:50:14.253Z,8.39
2023-01-12T11:52:42.608Z,8.47
2023-01-12T11:55:15.871Z,8.54
2023-01-12T11:58:08.284Z,8.57
2023-01-12T12:01:04.868Z,8.52
2023-01-12T12:03:35.436Z,8.54
2023-01-12T12:06:15.463Z,8.56
2023-01-12T12:08:42.847Z,8.62
2023-01-12T12:11:13.524Z,8.64
2023-01-12T12:13:56.310Z,8.75
2023-01-12T12:16:36.570Z,8.59
2023-01-12T12:19:07.195Z,8.66
2023-01-12T12:21:54.235Z,8.73
2023-01-12T12:25:09.284Z,8.65
2023-01-12T12:28:09.461Z,8.76
2023-01-12T12:30:48.368Z,8.79
2023-01-12T12:33:58.155Z,8.86
2023-01-12T12:36:39.484Z,9.02
2023-01-12T12:39:22.048Z,9.05
2023-01-12T12:42:24.160Z,9.04
2023-01-12T12:45:25.557Z,9.19
2023-01-12T12:48:06.194Z,9.37
2023-01-12T12:50:51.470Z,9.54
2023-01-12T12:53:35.951Z,9.62
2023-01-12T12:56:16.400Z,9.53
2023-01-12T12:58:48.454Z,9.52
2023-01-12T13:01:25.397Z,9.55
2023-01-12T13:03:58.754Z,9.71
2023-01-12T13:06:33.936Z,9.80
2023-01-12T13:09:25.311Z,9.83
2023-01-12T13:11:54.296Z,9.90
2023-01-12T13:14:28.114Z,10.03
2023-01-12T13:17:23.831Z,10.11
2023-01-12T13:20:24.684Z,10.12
2023-01-12T13:22:53.267Z,10.08
2023-01-12T13:25:20.795Z,10.22
2023-01-12T13:28:00.966Z,10.28
2023-01-12T13:30:28.459Z,10.27
2023-01-12T13:33:17.190Z,10.23
2023-01-12T13:35:45.106Z,10.24
2023-01-12T13:38:37.452Z,10.40
2023-01-12T13:41:50.330Z,10.50
2023-01-12T13:44:35.191Z,10.57
2023-01-12T13:47:10.329Z,10.60
2023-01-12T13:49:53.176Z,10.50
2023-01-12T13:52:36.074Z,10.46
2023-01-12T13:55:17.688Z,10.37
2023-01-12T13:58:20.007Z,10.31
2023-01-12T14:00:55.480Z,10.21
2023-01-12T14:03:53.969Z,10.34
2023-01-12T14:06:37.978Z,10.29
2023-01-12T14:09:20.928Z,10.21
2023-01-12T14:12:07.805Z,10.22
2023-01-12T14:15:14.293Z,10.28
2023-01-12T14:17:57.963Z,10.29
2023-01-12T14:20:28.418Z,10.23
2023-01-12T14:23:27.996Z,10.24
2023-01-12T14:26:10.681Z,10.18
2023-01-12T14:28:43.364Z,10.18
2023-01-12T14:31:19.478Z,10.04
2023-01-12T14:33:56.464Z,10.02
2023-01-12T14:36:50.264Z,9.94
2023-01-12T14:39:24.017Z,10.05
2023-01-12T14:42:12.866Z,10.01
2023-01-12T14:45:08.403Z,10.07
2023-01-12T14:47:36.089Z,10.10
2023-01-12T14:50:12.600Z,10.10
2023-01-12T14:52:45.777Z,10.07
2023-01-12T14:55:17.668Z,10.07
2023-01-12T14:57:54.885Z,10.09
2023-01-12T15:00:28.047Z,10.06
2023-01-12T15:02:57.681Z,10.04
2023-01-12T15:05:27.553Z,10.02
2023-01-12T15:08:22.519Z,9.94
2023-01-12T15:11:28.473Z,9.89
2023-01-12T15:13:58.193Z,9.79
2023-01-12T15:16:44.417Z,9.77
2023-01-12T15:19:30.470Z,9.78
2023-01-12T15:22:18.054Z,9.75
2023-01-12T15:25:04.161Z,9.64
2023-01-12T15:27:32.108Z,9.62
2023-01-12T15:29:59.680Z,9.56
2023-01-12T15:32:52.120Z,9.46
2023-01-12T15:35:23.770Z,9.44
2023-01-12T15:37:54.479Z,9.36
2023-01-12T15:40:22.941Z,9.31
2023-01-12T15:42:53.044Z,9.23
2023-01-12T15:45:34.620Z,9.20
2023-01-12T15:48:03.070Z,9.17
2023-01-12T15:50:31.489Z,9.05
2023-01-12T15:53:02.098Z,8.96
2023-01-12T15:55:36.046Z,8.89
2023-01-12T15:58:03.628Z,8.77
2023-01-12T16:00:31.265Z,8.73
2023-01-12T16:02:58.660Z,8.70
2023-01-12T16:05:29.106Z,8.68
2023-01-12T16:07:56.522Z,8.66
2023-01-12T16:10:24.146Z,8.57
2023-01-12T16:12:51.584Z,8.55
2023-01-12T16:15:25.091Z,8.50
2023-01-12T16:17:52.574Z,8.45
2023-01-12T16:20:20.695Z,8.33
2023-01-12T16:22:52.178Z,8.14
2023-01-12T16:25:20.769Z,8.05
2023-01-12T16:27:48.226Z,8.01
2023-01-12T16:30:15.983Z,7.97
2023-01-12T16:32:46.475Z,7.97
2023-01-12T16:35:15.746Z,7.97
2023-01-12T16:37:44.632Z,7.84
2023-01-12T16:40:12.753Z,7.88
2023-01-12T16:42:40.237Z,7.91
2023-01-12T16:45:08.125Z,7.99
2023-01-12T16:47:35.668Z,8.06
2023-01-12T16:50:03.870Z,8.13
2023-01-12T16:52:31.271Z,8.09
2023-01-12T16:54:58.663Z,8.00
2023-01-12T16:57:26.177Z,7.97
2023-01-12T16:59:53.529Z,7.97
2023-01-12T17:02:21.513Z,7.88
2023-01-12T17:04:52.328Z,7.76
2023-01-12T17:07:20.393Z,7.74
2023-01-12T17:09:48.582Z,7.73
2023-01-12T17:12:16.710Z,7.61
2023-01-12T17:14:44.865Z,7.52
2023-01-12T17:17:12.961Z,7.45
2023-01-12T17:19:43.957Z,7.40
2023-01-12T17:22:12.391Z,7.36
2023-01-12T17:24:41.205Z,7.30
2023-01-12T17:27:10.179Z,7.40
2023-01-12T17:29:37.806Z,7.47
2023-01-12T17:32:08.016Z,7.49
2023-01-12T17:34:39.868Z,7.50
2023-01-12T17:37:10.255Z,7.36
2023-01-12T17:39:39.978Z,7.35
2023-01-12T17:42:26.002Z,7.30
2023-01-12T17:44:53.410Z,7.23
2023-01-12T17:47:20.976Z,7.15
2023-01-12T17:49:48.287Z,6.99
2023-01-12T17:52:16.051Z,6.87
2023-01-12T17:54:43.438Z,6.80
2023-01-12T17:57:10.869Z,6.80
2023-01-12T17:59:38.354Z,6.78
2023-01-12T18:02:07.136Z,6.75
2023-01-12T18:04:34.531Z,6.75
2023-01-12T18:07:01.931Z,6.78
2023-01-12T18:09:29.391Z,6.91
2023-01-12T18:11:56.932Z,6.97
2023-01-12T18:14:25.031Z,7.05
2023-01-12T18:16:52.516Z,7.08
2023-01-12T18:19:19.990Z,7.11
2023-01-12T18:21:49.835Z,7.13
2023-01-12T18:24:17.195Z,7.16
2023-01-12T18:26:44.669Z,7.03
2023-01-12T18:29:12.205Z,7.01
2023-01-12T18:31:42.426Z,6.93
2023-01-12T18:34:10.823Z,6.88
2023-01-12T18:36:40.246Z,6.90
2023-01-12T18:39:11.577Z,6.86
2023-01-12T18:42:11.209Z,6.88
2023-01-12T18:44:39.228Z,6.75
2023-01-12T18:47:25.332Z,6.64
2023-01-12T18:49:57.627Z,6.51
2023-01-12T18:52:43.744Z,6.46
2023-01-12T18:55:11.128Z,6.35
2023-01-12T18:57:38.512Z,6.38
2023-01-12T19:00:17.770Z,6.33
2023-01-12T19:02:45.486Z,6.36
2023-01-12T19:05:14.847Z,6.27
2023-01-12T19:08:04.643Z,6.38
2023-01-12T19:10:33.639Z,6.33
2023-01-12T19:13:19.514Z,6.25
2023-01-12T19:16:05.673Z,6.30
2023-01-12T19:18:35.404Z,6.30
2023-01-12T19:21:27.614Z,6.21
2023-01-12T19:24:13.627Z,6.20
2023-01-12T19:26:59.708Z,6.18
2023-01-12T19:29:27.080Z,6.19
2023-01-12T19:31:54.517Z,6.12
2023-01-12T19:34:24.746Z,6.15
2023-01-12T19:36:52.909Z,6.19
2023-01-12T19:39:28.670Z,6.18
2023-01-12T19:42:14.792Z,6.20
2023-01-12T19:44:42.160Z,6.15
2023-01-12T19:47:09.549Z,6.16
2023-01-12T19:49:37.023Z,6.15
2023-01-12T19:52:04.487Z,6.13
2023-01-12T19:54:31.994Z,6.16
2023-01-12T19:56:59.398Z,6.21
2023-01-12T19:59:27.615Z,6.20
2023-01-12T20:01:55.105Z,6.18
2023-01-12T20:04:22.576Z,6.18
2023-01-12T20:06:53.173Z,6.17
2023-01-12T20:09:20.675Z,6.18
2023-01-12T20:11:54.415Z,6.22
2023-01-12T20:14:22.166Z,6.21
2023-01-12T20:16:49.535Z,6.26
2023-01-12T20:19:19.416Z,6.25
2023-01-12T20:21:47.563Z,6.23
2023-01-12T20:24:15.577Z,6.31
2023-01-12T20:26:43.003Z,6.43
2023-01-12T20:29:10.433Z,6.48
2023-01-12T20:31:37.756Z,6.32
2023-01-12T20:34:05.198Z,6.21
2023-01-12T20:36:33.187Z,6.12
2023-01-12T20:39:01.360Z,6.07
2023-01-12T20:41:30.061Z,5.97
2023-01-12T20:43:57.785Z,5.90
2023-01-12T20:46:26.248Z,5.92
2023-01-12T20:48:53.744Z,5.87
2023-01-12T20:51:21.055Z,6.04
2023-01-12T20:53:48.429Z,5.97
2023-01-12T20:56:15.771Z,5.83
2023-01-12T20:58:44.910Z,5.79
2023-01-12T21:01:15.695Z,5.83
2023-01-12T21:03:44.941Z,5.88
2023-01-12T21:06:18.058Z,5.96
2023-01-12T21:08:46.942Z,5.90
2023-01-12T21:11:16.940Z,5.90
2023-01-12T21:13:45.346Z,5.87
2023-01-12T21:16:16.284Z,5.82
2023-01-12T21:18:44.847Z,5.76
2023-01-12T21:21:12.871Z,5.79
2023-01-12T21:23:40.333Z,5.77
2023-01-12T21:26:08.279Z,5.73
2023-01-12T21:28:40.302Z,5.74
2023-01-12T21:31:08.755Z,5.71
2023-01-12T21:33:36.302Z,5.73
2023-01-12T21:36:04.195Z,5.77
2023-01-12T21:38:32.385Z,5.81
2023-01-12T21:41:04.446Z,5.78
2023-01-12T21:43:33.417Z,5.76
2023-01-12T21:46:09.524Z,5.75
2023-01-12T21:48:36.941Z,5.66
2023-01-12T21:51:06.449Z,5.65
2023-01-12T21:53:34.035Z,5.59
2023-01-12T21:56:04.727Z,5.62
2023-01-12T21:58:34.700Z,5.56
2023-01-12T22:01:11.042Z,5.55
2023-01-12T22:03:38.941Z,5.61
2023-01-12T22:06:12.592Z,5.64
2023-01-12T22:08:41.221Z,5.65
2023-01-12T22:11:14.336Z,5.64
2023-01-12T22:13:43.528Z,5.62
2023-01-12T22:16:13.695Z,5.57
2023-01-12T22:18:46.279Z,5.64
2023-01-12T22:21:13.903Z,5.69
2023-01-12T22:23:41.300Z,5.67
2023-01-12T22:26:11.070Z,5.70
2023-01-12T22:28:40.804Z,5.60
2023-01-12T22:31:14.080Z,5.66
2023-01-12T22:33:45.383Z,5.74
2023-01-12T22:36:13.173Z,5.64
2023-01-12T22:38:42.087Z,5.56
2023-01-12T22:41:12.222Z,5.53
2023-01-12T22:43:42.921Z,5.55
2023-01-12T22:46:24.066Z,5.53
2023-01-12T22:48:56.648Z,5.50
2023-01-12T22:51:26.029Z,5.50
2023-01-12T22:53:54.332Z,5.44
2023-01-12T22:56:22.816Z,5.43
2023-01-12T22:58:52.420Z,5.36
2023-01-12T23:01:21.869Z,5.36
2023-01-12T23:03:54.348Z,5.44
2023-01-12T23:06:23.471Z,5.43
2023-01-12T23:08:52.060Z,5.39
2023-01-12T23:11:22.277Z,5.25
2023-01-12T23:13:50.738Z,5.28
2023-01-12T23:16:19.517Z,5.33
2023-01-12T23:18:50.018Z,5.33
2023-01-12T23:21:21.500Z,5.20
2023-01-12T23:23:54.566Z,5.26
2023-01-12T23:26:28.620Z,5.24
2023-01-12T23:29:00.312Z,5.19
2023-01-12T23:31:30.519Z,5.21
2023-01-12T23:33:58.165Z,5.26
2023-01-12T23:36:28.305Z,5.26
2023-01-12T23:38:58.501Z,5.34
2023-01-12T23:41:28.087Z,5.26
2023-01-12T23:43:57.877Z,5.41
2023-01-12T23:46:26.662Z,5.43
2023-01-12T23:48:56.130Z,5.33
2023-01-12T23:51:25.844Z,5.39
2023-01-12T23:53:54.483Z,5.28
2023-01-12T23:56:23.635Z,5.22
2023-01-12T23:58:51.023Z,5.27
